Palm Springs, CA

10:06 AM PST on November 22, 2014 (GMT -0800)
PS Park San Rafael @ Naked Palms | Change Station
CLOSE
Current Station
Personal Weather Station
Location: Palm Springs, CA
Elevation: 581 ft
Nearby Weather Stations
Active Advisory: Wind Advisory

Elev 581 ft 33.86 °N, 116.54 °W | Updated 37 minutes ago

Partly Cloudy
Partly Cloudy
70.2 °F
Feels Like 77 °F
N
1.1
Wind Variable Wind from SSW

Today
High -- | Low -- °F
--% Chance of Precip.
Yesterday
High -- | Low -- °F
Precip. -- in
6:25 AM 4:39 PM
New Moon, 0% visible
Pressure 30.07 in
Visibility 10.0 miles
Clouds Mostly Cloudy 20000 ft
Heat Index 77 °F
Dew Point 44 °F
Humidity 39%
Rainfall 0.00 in
Snow Depth Not available.
UV 2 out of 12
Pollen 2.10 out of 12
Air Quality Not available.
Flu Activity Not available.
METAR KPSP 221753Z 00000KT 10SM BKN200 18/03 A3007 RMK AO2 SLP182 T01780028 10178 20089 50003

More Conditions Fewer Conditions

Pressure 30.07 in
Visibility 10.0 miles
Clouds Mostly Cloudy 20000 ft
Heat Index 77 °F
Dew Point 44 °F
Humidity 39%
Rainfall 0.00 in
Snow Depth Not available.
UV 2 out of 12
Pollen 2.10 out of 12
Air Quality Not available.
Flu Activity Not available.
METAR KPSP 221753Z 00000KT 10SM BKN200 18/03 A3007 RMK AO2 SLP182 T01780028 10178 20089 50003

More Conditions Fewer Conditions

10-Day Weather Forecast

Almanac

Astronomy

Nov. 22, 2014 Rise Set
Actual Time
Civil Twilight
Nautical Twilight
Astronomical Twilight
Moon
Length of Visible Light
Length of Day
Tomorrow will be .
, % of the Moon is Illuminated

Today's Extremes

State Highs State Lows

Community

WunderPhotos

Upload Photos

1,772,871 photos uploaded!

WunderBlogs® & News

Nearby

Air Quality

  Air Quality AQ Index Pollutant
Not available.

Snow Depth

Station Depth Elevation

Earthquake Activity

City Distance Mag. Time & Date
Minimum magnitude displayed is 2.5.

Coastal Water Temperatures

Place Temperature

Nearby Weather Stations